Terminal Aerodrome Forecast
Issued by NWS

Home | Current Version | Previous Version | Graphics & Text | Print | Product List | Glossary On
Versions: 1 2 3 4 5 6 7 8 9 10 11 12 13 14 15 16 17 18 19 20 21 22 23 24 25 26 27 28 29 30 31 32 33 34 35 36 37 38
000
FTUS45 KBOU 201125
TAFBJC
TAF
KBJC 201125Z 2012/2112 25005KT P6SM FEW140 SCT200
     FM201400 30006KT P6SM FEW140 SCT220
     FM201600 02009KT P6SM FEW100 SCT200
     FM202200 05010KT P6SM SCT100 BKN150 PROB30 2022/2101 VRB20G30KT
      -TSRA BKN100CB
     FM210100 10008KT P6SM SCT100 BKN200
     FM210400 29006KT P6SM SCT100 BKN200=

USA.gov is the U.S. government's official web portal to all federal, state and local government web resources and services.